createdAt,value
2018-11-04T00:00:23.530Z,101534.00
2018-11-04T00:02:52.963Z,101517.00
2018-11-04T00:05:22.144Z,101521.00
2018-11-04T00:07:51.994Z,101518.00
2018-11-04T00:10:21.263Z,101506.00
2018-11-04T00:12:50.429Z,101509.00
2018-11-04T00:15:19.646Z,101507.00
2018-11-04T00:17:48.865Z,101503.00
2018-11-04T00:20:18.324Z,101506.00
2018-11-04T00:22:47.522Z,101498.00
2018-11-04T00:25:16.937Z,101504.00
2018-11-04T00:27:46.134Z,101497.00
2018-11-04T00:30:25.460Z,101493.00
2018-11-04T00:32:54.654Z,101493.00
2018-11-04T00:35:23.858Z,101486.00
2018-11-04T00:37:53.050Z,101486.00
2018-11-04T00:40:22.252Z,101497.00
2018-11-04T00:42:51.451Z,101484.00
2018-11-04T00:45:20.719Z,101479.00
2018-11-04T00:47:49.902Z,101479.00
2018-11-04T00:50:19.099Z,101480.00
2018-11-04T00:52:48.338Z,101466.00
2018-11-04T00:55:17.534Z,101473.00
2018-11-04T01:00:47.458Z,101468.00
2018-11-04T01:03:16.637Z,101455.00
2018-11-04T01:05:45.800Z,101450.00
2018-11-04T01:08:15.026Z,101447.00
2018-11-04T01:10:44.193Z,101455.00
2018-11-04T01:13:13.390Z,101451.00
2018-11-04T01:15:42.565Z,101435.00
2018-11-04T01:18:11.771Z,101449.00
2018-11-04T01:20:40.959Z,101444.00
2018-11-04T01:23:10.152Z,101438.00
2018-11-04T01:25:39.329Z,101441.00
2018-11-04T01:28:08.517Z,101438.00
2018-11-04T01:30:37.686Z,101446.00
2018-11-04T01:33:07.023Z,101448.00
2018-11-04T01:35:36.261Z,101439.00
2018-11-04T01:38:05.543Z,101442.00
2018-11-04T01:40:34.704Z,101431.00
2018-11-04T01:43:03.877Z,101433.00
2018-11-04T01:45:33.082Z,101435.00
2018-11-04T01:48:02.308Z,101423.00
2018-11-04T01:50:31.493Z,101425.00
2018-11-04T01:53:00.797Z,101421.00
2018-11-04T01:55:31.017Z,101422.00
2018-11-04T01:58:00.209Z,101414.00
2018-11-04T02:00:29.449Z,101406.00
2018-11-04T02:02:58.635Z,101418.00
2018-11-04T02:05:27.829Z,101414.00
2018-11-04T02:07:57.203Z,101401.00
2018-11-04T02:10:26.386Z,101401.00
2018-11-04T02:12:55.577Z,101400.00
2018-11-04T02:15:25.002Z,101399.00
2018-11-04T02:17:54.178Z,101400.00
2018-11-04T02:20:23.418Z,101385.00
2018-11-04T02:22:52.597Z,101391.00
2018-11-04T02:25:21.782Z,101378.00
2018-11-04T02:27:50.981Z,101379.00
2018-11-04T02:30:20.191Z,101377.00
2018-11-04T02:32:49.402Z,101379.00
2018-11-04T02:35:18.563Z,101380.00
2018-11-04T02:37:47.825Z,101381.00
2018-11-04T02:40:17.040Z,101370.00
2018-11-04T02:42:46.245Z,101373.00
2018-11-04T02:45:15.427Z,101375.00
2018-11-04T02:47:44.633Z,101374.00
2018-11-04T02:50:26.343Z,101376.00
2018-11-04T02:52:56.278Z,101358.00
2018-11-04T02:55:25.494Z,101357.00
2018-11-04T02:57:54.720Z,101356.00
2018-11-04T03:00:24.026Z,101357.00
2018-11-04T03:02:53.205Z,101352.00
2018-11-04T03:05:22.434Z,101340.00
2018-11-04T03:07:51.612Z,101358.00
2018-11-04T03:10:20.782Z,101341.00
2018-11-04T03:12:49.981Z,101343.00
2018-11-04T03:15:19.325Z,101342.00
2018-11-04T03:20:49.405Z,101335.00
2018-11-04T03:23:18.609Z,101340.00
2018-11-04T03:25:47.765Z,101339.00
2018-11-04T03:28:16.934Z,101348.00
2018-11-04T03:30:46.203Z,101344.00
2018-11-04T03:33:15.404Z,101342.00
2018-11-04T03:41:44.821Z,101315.00
2018-11-04T03:47:32.357Z,101321.00
2018-11-04T03:53:15.501Z,101322.00
2018-11-04T03:55:44.735Z,101314.00
2018-11-04T03:58:13.914Z,101309.00
2018-11-04T04:00:43.135Z,101310.00
2018-11-04T04:03:24.813Z,101306.00
2018-11-04T04:06:23.329Z,101305.00
2018-11-04T04:09:23.386Z,101298.00
2018-11-04T04:15:23.806Z,101286.00
2018-11-04T04:21:23.602Z,101286.00
2018-11-04T05:57:23.856Z,101262.00
2018-11-04T06:06:24.180Z,101267.00
2018-11-04T06:12:23.477Z,101275.00
2018-11-04T06:24:23.876Z,101281.00
2018-11-04T06:30:23.540Z,101285.00
2018-11-04T06:39:23.721Z,101281.00
2018-11-04T06:48:23.382Z,101279.00
2018-11-04T07:06:24.388Z,101271.00
2018-11-04T07:09:23.365Z,101267.00
2018-11-04T07:15:23.993Z,101264.00
2018-11-04T07:55:26.202Z,101255.00
2018-11-04T07:58:24.313Z,101257.00
2018-11-04T08:01:23.344Z,101262.00
2018-11-04T08:16:23.517Z,101254.00
2018-11-04T08:34:24.014Z,101244.00
2018-11-04T08:43:23.821Z,101239.00
2018-11-04T08:49:23.461Z,101221.00
2018-11-04T09:00:54.498Z,101216.00
2018-11-04T09:14:23.882Z,101191.00
2018-11-04T09:16:53.098Z,101200.00
2018-11-04T09:19:28.228Z,101196.00
2018-11-04T09:22:24.364Z,101195.00
2018-11-04T09:24:53.589Z,101199.00
2018-11-04T09:27:22.861Z,101202.00
2018-11-04T09:29:52.074Z,101197.00
2018-11-04T09:32:27.253Z,101196.00
2018-11-04T09:35:25.451Z,101194.00
2018-11-04T09:37:54.484Z,101205.00
2018-11-04T09:40:23.729Z,101204.00
2018-11-04T09:42:52.929Z,101210.00
2018-11-04T09:45:22.175Z,101201.00
2018-11-04T09:47:51.374Z,101195.00
2018-11-04T09:50:20.578Z,101201.00
2018-11-04T09:52:49.781Z,101190.00
2018-11-04T09:55:19.001Z,101190.00
2018-11-04T09:57:48.204Z,101190.00
2018-11-04T10:00:17.419Z,101185.00
2018-11-04T10:02:46.669Z,101189.00
2018-11-04T10:05:15.861Z,101179.00
2018-11-04T10:07:45.053Z,101180.00
2018-11-04T10:10:15.222Z,101165.00
2018-11-04T10:12:45.066Z,101164.00
2018-11-04T10:15:14.313Z,101164.00
2018-11-04T10:17:43.506Z,101165.00
2018-11-04T10:20:13.616Z,101165.00
2018-11-04T10:22:42.897Z,101160.00
2018-11-04T10:25:12.891Z,101161.00
2018-11-04T10:27:43.395Z,101163.00
2018-11-04T10:30:25.907Z,101162.00
2018-11-04T10:32:55.617Z,101164.00
2018-11-04T10:35:24.787Z,101160.00
2018-11-04T10:37:54.010Z,101158.00
2018-11-04T10:40:23.280Z,101155.00
2018-11-04T10:42:52.482Z,101149.00
2018-11-04T10:45:21.761Z,101135.00
2018-11-04T10:47:51.006Z,101132.00
2018-11-04T10:50:20.255Z,101125.00
2018-11-04T10:52:49.433Z,101122.00
2018-11-04T10:55:18.642Z,101117.00
2018-11-04T10:57:47.842Z,101128.00
2018-11-04T11:00:22.290Z,101112.00
2018-11-04T11:02:51.593Z,101108.00
2018-11-04T11:05:20.835Z,101107.00
2018-11-04T11:07:50.078Z,101090.00
2018-11-04T11:10:19.248Z,101110.00
2018-11-04T11:15:48.378Z,101095.00
2018-11-04T11:18:17.696Z,101090.00
2018-11-04T11:20:46.930Z,101087.00
2018-11-04T11:23:16.225Z,101095.00
2018-11-04T11:25:45.397Z,101081.00
2018-11-04T11:28:14.594Z,101086.00
2018-11-04T11:30:43.782Z,101074.00
2018-11-04T11:33:12.999Z,101066.00
2018-11-04T11:35:42.178Z,101065.00
2018-11-04T11:38:11.436Z,101052.00
2018-11-04T11:40:40.641Z,101062.00
2018-11-04T11:43:09.840Z,101054.00
2018-11-04T11:45:39.102Z,101045.00
2018-11-04T11:48:08.923Z,101044.00
2018-11-04T11:50:38.202Z,101043.00
2018-11-04T11:53:07.590Z,101041.00
2018-11-04T11:55:36.818Z,101043.00
2018-11-04T11:58:06.153Z,101046.00
2018-11-04T12:00:35.327Z,101051.00
2018-11-04T12:03:04.573Z,101036.00
2018-11-04T12:05:33.818Z,101036.00
2018-11-04T12:08:03.581Z,101035.00
2018-11-04T12:10:32.763Z,101031.00
2018-11-04T12:13:02.075Z,101023.00
2018-11-04T12:15:32.064Z,101018.00
2018-11-04T12:18:01.301Z,101021.00
2018-11-04T12:20:30.506Z,101015.00
2018-11-04T12:23:24.759Z,101007.00
2018-11-04T12:25:53.914Z,101011.00
2018-11-04T12:28:23.209Z,101003.00
2018-11-04T12:30:52.486Z,101004.00
2018-11-04T12:33:21.868Z,100996.00
2018-11-04T12:38:54.278Z,100997.00
2018-11-04T12:41:23.478Z,100997.00
2018-11-04T12:43:53.001Z,100996.00
2018-11-04T12:46:22.231Z,100985.00
2018-11-04T12:48:51.462Z,100985.00
2018-11-04T12:51:26.344Z,100978.00
2018-11-04T12:53:55.538Z,100975.00
2018-11-04T12:56:24.747Z,100982.00
2018-11-04T12:58:53.960Z,100981.00
2018-11-04T13:01:23.163Z,100978.00
2018-11-04T13:03:52.364Z,100987.00
2018-11-04T13:06:21.561Z,100978.00
2018-11-04T13:08:50.768Z,100977.00
2018-11-04T13:11:20.045Z,100977.00
2018-11-04T13:16:49.912Z,100982.00
2018-11-04T13:19:26.081Z,100981.00
2018-11-04T13:21:55.265Z,100990.00
2018-11-04T13:24:24.575Z,100973.00
2018-11-04T13:26:53.807Z,100971.00
2018-11-04T13:29:23.048Z,100964.00
2018-11-04T13:41:23.660Z,100947.00
2018-11-04T13:55:54.138Z,100943.00
2018-11-04T13:58:27.091Z,100947.00
2018-11-04T14:01:25.467Z,100938.00
2018-11-04T14:04:24.303Z,100940.00
2018-11-04T14:10:23.857Z,100934.00
2018-11-04T14:19:24.266Z,100918.00
2018-11-04T14:25:23.820Z,100921.00
2018-11-04T14:27:52.993Z,100912.00
2018-11-04T14:30:22.182Z,100918.00
2018-11-04T14:53:54.569Z,100908.00
2018-11-04T14:56:28.919Z,100906.00
2018-11-04T14:59:23.723Z,100895.00
2018-11-04T15:11:24.004Z,100890.00
2018-11-04T15:17:23.592Z,100891.00
2018-11-04T15:29:23.707Z,100896.00
2018-11-04T15:59:23.778Z,100896.00
2018-11-04T16:20:23.837Z,100898.00
2018-11-04T16:32:24.485Z,100893.00
2018-11-04T16:41:15.353Z,100892.00
2018-11-04T16:46:45.059Z,100889.00
2018-11-04T16:49:27.153Z,100877.00
2018-11-04T16:51:56.469Z,100882.00
2018-11-04T16:54:25.693Z,100881.00
2018-11-04T16:56:55.630Z,100878.00
2018-11-04T16:59:25.726Z,100878.00
2018-11-04T17:02:24.394Z,100881.00
2018-11-04T17:07:53.581Z,100886.00
2018-11-04T17:10:22.840Z,100888.00
2018-11-04T17:12:52.505Z,100880.00
2018-11-04T17:15:27.429Z,100885.00
2018-11-04T17:18:25.451Z,100882.00
2018-11-04T17:21:24.922Z,100876.00
2018-11-04T17:23:54.369Z,100875.00
2018-11-04T17:26:23.544Z,100867.00
2018-11-04T17:34:56.535Z,100871.00
2018-11-04T17:37:26.720Z,100866.00
2018-11-04T17:39:55.918Z,100864.00
2018-11-04T17:42:26.543Z,100869.00
2018-11-04T17:44:55.742Z,100867.00
2018-11-04T17:47:28.500Z,100867.00
2018-11-04T17:49:57.769Z,100859.00
2018-11-04T17:52:27.020Z,100861.00
2018-11-04T17:54:56.419Z,100863.00
2018-11-04T17:57:27.162Z,100868.00
2018-11-04T18:00:25.613Z,100862.00
2018-11-04T18:03:24.222Z,100865.00
2018-11-04T18:05:53.438Z,100865.00
2018-11-04T18:08:28.892Z,100861.00
2018-11-04T18:11:23.969Z,100866.00
2018-11-04T18:16:53.259Z,100866.00
2018-11-04T18:19:28.287Z,100861.00
2018-11-04T18:22:24.306Z,100859.00
2018-11-04T18:30:45.535Z,100869.00
2018-11-04T18:33:27.137Z,100865.00
2018-11-04T18:36:25.600Z,100868.00
2018-11-04T18:38:54.808Z,100863.00
2018-11-04T18:41:27.949Z,100861.00
2018-11-04T18:44:24.370Z,100853.00
2018-11-04T18:48:30.354Z,100856.00
2018-11-04T18:50:59.533Z,100860.00
2018-11-04T18:53:28.758Z,100865.00
2018-11-04T18:56:25.236Z,100860.00
2018-11-04T19:02:24.226Z,100845.00
2018-11-04T19:04:53.805Z,100845.00
2018-11-04T19:07:23.041Z,100849.00
2018-11-04T19:09:52.313Z,100847.00
2018-11-04T19:12:22.843Z,100843.00
2018-11-04T19:14:52.035Z,100849.00
2018-11-04T19:17:22.291Z,100839.00
2018-11-04T19:19:51.477Z,100853.00
2018-11-04T19:22:20.741Z,100853.00
2018-11-04T19:24:49.965Z,100839.00
2018-11-04T19:27:19.503Z,100850.00
2018-11-04T19:29:48.697Z,100836.00
2018-11-04T19:32:26.058Z,100833.00
2018-11-04T19:34:55.304Z,100839.00
2018-11-04T19:37:24.612Z,100845.00
2018-11-04T19:42:55.598Z,100849.00
2018-11-04T19:45:28.388Z,100839.00
2018-11-04T19:48:23.967Z,100834.00
2018-11-04T19:50:53.878Z,100847.00
2018-11-04T19:53:29.726Z,100839.00
2018-11-04T19:55:58.973Z,100837.00
2018-11-04T19:58:28.147Z,100835.00
2018-11-04T20:00:57.403Z,100824.00
2018-11-04T20:03:26.603Z,100833.00
2018-11-04T20:06:25.082Z,100837.00
2018-11-04T20:12:24.091Z,100826.00
2018-11-04T20:14:53.623Z,100826.00
2018-11-04T20:17:28.903Z,100835.00
2018-11-04T20:20:04.061Z,100827.00
2018-11-04T20:22:33.194Z,100844.00
2018-11-04T20:27:42.524Z,100828.00
2018-11-04T20:30:12.896Z,100832.00
2018-11-04T20:32:47.430Z,100825.00
2018-11-04T20:35:16.996Z,100820.00
2018-11-04T20:40:53.147Z,100815.00
2018-11-04T20:43:28.844Z,100813.00
2018-11-04T20:46:24.845Z,100818.00
2018-11-04T20:51:55.896Z,100835.00
2018-11-04T20:54:25.167Z,100829.00
2018-11-04T20:59:34.163Z,100818.00
2018-11-04T21:02:26.604Z,100809.00
2018-11-04T21:04:55.737Z,100806.00
2018-11-04T21:07:25.066Z,100807.00
2018-11-04T21:09:54.926Z,100802.00
2018-11-04T21:12:24.289Z,100803.00
2018-11-04T21:14:53.554Z,100807.00
2018-11-04T21:17:26.718Z,100799.00
2018-11-04T21:19:55.922Z,100798.00
2018-11-04T21:22:25.199Z,100802.00
2018-11-04T21:24:54.502Z,100794.00
2018-11-04T21:27:23.743Z,100797.00
2018-11-04T21:29:53.019Z,100796.00
2018-11-04T21:32:28.715Z,100797.00
2018-11-04T21:34:58.329Z,100799.00
2018-11-04T21:37:27.594Z,100795.00
2018-11-04T21:39:57.593Z,100795.00
2018-11-04T21:42:26.968Z,100793.00
2018-11-04T21:44:56.178Z,100796.00
2018-11-04T21:47:25.389Z,100797.00
2018-11-04T21:49:54.638Z,100792.00
2018-11-04T21:52:23.805Z,100798.00
2018-11-04T21:54:53.026Z,100799.00
2018-11-04T21:57:22.464Z,100796.00
2018-11-04T22:02:52.589Z,100799.00
2018-11-04T22:05:27.681Z,100800.00
2018-11-04T22:08:25.696Z,100790.00
2018-11-04T22:11:24.584Z,100799.00
2018-11-04T22:20:24.642Z,100797.00
2018-11-04T22:25:54.660Z,100798.00
2018-11-04T22:28:27.174Z,100800.00
2018-11-04T22:30:56.400Z,100800.00
2018-11-04T22:33:25.611Z,100803.00
2018-11-04T22:35:54.824Z,100797.00
2018-11-04T22:38:23.985Z,100804.00
2018-11-04T22:40:53.192Z,100802.00
2018-11-04T22:43:22.358Z,100806.00
2018-11-04T22:45:51.554Z,100802.00
2018-11-04T22:48:20.781Z,100797.00
2018-11-04T22:50:49.963Z,100794.00
2018-11-04T22:53:19.165Z,100796.00
2018-11-04T22:58:48.625Z,100790.00
2018-11-04T23:01:17.843Z,100784.00
2018-11-04T23:03:47.128Z,100787.00
2018-11-04T23:06:16.264Z,100789.00
2018-11-04T23:08:45.442Z,100787.00
2018-11-04T23:11:14.679Z,100789.00
2018-11-04T23:13:43.852Z,100788.00
2018-11-04T23:16:13.090Z,100788.00
2018-11-04T23:18:42.381Z,100785.00
2018-11-04T23:21:11.677Z,100778.00
2018-11-04T23:23:40.871Z,100783.00
2018-11-04T23:26:10.061Z,100779.00
2018-11-04T23:28:39.275Z,100784.00
2018-11-04T23:31:08.453Z,100777.00
2018-11-04T23:33:37.701Z,100778.00
2018-11-04T23:36:06.857Z,100777.00
2018-11-04T23:38:36.087Z,100773.00
2018-11-04T23:41:05.666Z,100769.00
2018-11-04T23:43:34.916Z,100768.00
2018-11-04T23:46:04.150Z,100758.00
2018-11-04T23:48:33.358Z,100755.00
2018-11-04T23:51:25.956Z,100766.00
2018-11-04T23:53:55.155Z,100766.00
2018-11-04T23:56:24.338Z,100768.00
2018-11-04T23:58:53.513Z,100749.00
